sensor_id;sensor_type;location;lat;lon;timestamp;pressure;altitude;pressure_sealevel;temperature;humidity
75008;BME280;63554;48.940;12.050;2023-05-10T00:00:15;96692.47;;;13.20;61.80
75008;BME280;63554;48.940;12.050;2023-05-10T00:04:18;96679.97;;;13.19;62.59
75008;BME280;63554;48.940;12.050;2023-05-10T00:08:21;96678.84;;;13.15;62.95
75008;BME280;63554;48.940;12.050;2023-05-10T00:12:23;96682.03;;;13.12;63.62
75008;BME280;63554;48.940;12.050;2023-05-10T00:16:27;96673.53;;;13.03;63.65
75008;BME280;63554;48.940;12.050;2023-05-10T00:20:30;96670.97;;;12.97;63.73
75008;BME280;63554;48.940;12.050;2023-05-10T00:24:33;96675.03;;;12.94;64.61
75008;BME280;63554;48.940;12.050;2023-05-10T00:28:35;96668.25;;;12.97;63.75
75008;BME280;63554;48.940;12.050;2023-05-10T00:32:39;96662.50;;;12.93;63.79
75008;BME280;63554;48.940;12.050;2023-05-10T00:36:42;96667.13;;;12.93;64.24
75008;BME280;63554;48.940;12.050;2023-05-10T00:40:44;96667.13;;;12.93;64.41
75008;BME280;63554;48.940;12.050;2023-05-10T00:44:47;96662.78;;;12.92;64.13
75008;BME280;63554;48.940;12.050;2023-05-10T00:48:51;96671.41;;;12.89;63.84
75008;BME280;63554;48.940;12.050;2023-05-10T00:52:54;96664.28;;;12.82;64.02
75008;BME280;63554;48.940;12.050;2023-05-10T00:56:57;96660.16;;;12.80;63.96
75008;BME280;63554;48.940;12.050;2023-05-10T01:01:00;96671.00;;;12.80;63.85
75008;BME280;63554;48.940;12.050;2023-05-10T01:05:06;96669.06;;;12.75;64.34
75008;BME280;63554;48.940;12.050;2023-05-10T01:09:09;96678.53;;;12.73;64.81
75008;BME280;63554;48.940;12.050;2023-05-10T01:13:13;96674.72;;;12.74;65.08
75008;BME280;63554;48.940;12.050;2023-05-10T01:17:21;96671.81;;;12.58;64.96
75008;BME280;63554;48.940;12.050;2023-05-10T01:21:32;96680.56;;;12.43;65.52
75008;BME280;63554;48.940;12.050;2023-05-10T01:30:46;96680.78;;;12.42;65.57
75008;BME280;63554;48.940;12.050;2023-05-10T01:35:00;96681.13;;;12.45;65.35
75008;BME280;63554;48.940;12.050;2023-05-10T01:39:09;96681.94;;;12.46;65.61
75008;BME280;63554;48.940;12.050;2023-05-10T01:43:19;96682.69;;;12.41;66.03
75008;BME280;63554;48.940;12.050;2023-05-10T01:47:30;96689.44;;;12.39;67.12
75008;BME280;63554;48.940;12.050;2023-05-10T01:51:39;96685.16;;;12.26;67.66
75008;BME280;63554;48.940;12.050;2023-05-10T01:55:46;96680.88;;;12.30;67.80
75008;BME280;63554;48.940;12.050;2023-05-10T01:59:50;96672.84;;;12.35;68.04
75008;BME280;63554;48.940;12.050;2023-05-10T02:03:54;96670.13;;;12.35;67.78
75008;BME280;63554;48.940;12.050;2023-05-10T02:08:00;96682.44;;;12.26;68.41
75008;BME280;63554;48.940;12.050;2023-05-10T02:12:04;96679.41;;;12.22;69.46
75008;BME280;63554;48.940;12.050;2023-05-10T02:16:08;96679.16;;;12.24;69.84
75008;BME280;63554;48.940;12.050;2023-05-10T02:20:11;96673.75;;;12.24;70.96
75008;BME280;63554;48.940;12.050;2023-05-10T02:24:16;96680.06;;;12.30;71.05
75008;BME280;63554;48.940;12.050;2023-05-10T02:28:21;96683.44;;;12.37;70.95
75008;BME280;63554;48.940;12.050;2023-05-10T02:32:24;96680.47;;;12.38;72.00
75008;BME280;63554;48.940;12.050;2023-05-10T02:36:29;96679.41;;;12.22;73.12
75008;BME280;63554;48.940;12.050;2023-05-10T02:40:36;96671.19;;;12.00;75.20
75008;BME280;63554;48.940;12.050;2023-05-10T02:44:40;96673.47;;;11.92;76.23
75008;BME280;63554;48.940;12.050;2023-05-10T02:48:44;96673.31;;;11.98;76.52
75008;BME280;63554;48.940;12.050;2023-05-10T02:52:50;96670.44;;;12.05;77.51
75008;BME280;63554;48.940;12.050;2023-05-10T02:56:57;96678.56;;;11.88;79.21
75008;BME280;63554;48.940;12.050;2023-05-10T03:01:00;96673.09;;;11.71;80.77
75008;BME280;63554;48.940;12.050;2023-05-10T03:05:04;96669.63;;;11.59;82.33
75008;BME280;63554;48.940;12.050;2023-05-10T03:09:07;96663.75;;;11.50;83.50
75008;BME280;63554;48.940;12.050;2023-05-10T03:13:16;96682.50;;;11.52;83.19
75008;BME280;63554;48.940;12.050;2023-05-10T03:17:32;96677.31;;;11.50;83.34
75008;BME280;63554;48.940;12.050;2023-05-10T03:21:41;96666.47;;;11.50;83.88
75008;BME280;63554;48.940;12.050;2023-05-10T03:25:48;96669.72;;;11.35;85.55
75008;BME280;63554;48.940;12.050;2023-05-10T03:29:53;96670.63;;;11.12;85.74
75008;BME280;63554;48.940;12.050;2023-05-10T03:33:57;96681.47;;;11.12;86.88
75008;BME280;63554;48.940;12.050;2023-05-10T03:37:59;96684.16;;;11.12;87.86
75008;BME280;63554;48.940;12.050;2023-05-10T03:42:02;96686.88;;;11.12;87.53
75008;BME280;63554;48.940;12.050;2023-05-10T03:46:06;96684.28;;;11.17;87.54
75008;BME280;63554;48.940;12.050;2023-05-10T03:50:09;96689.00;;;11.10;88.44
75008;BME280;63554;48.940;12.050;2023-05-10T03:54:12;96695.03;;;11.41;89.80
75008;BME280;63554;48.940;12.050;2023-05-10T03:58:15;96697.47;;;11.42;88.05
75008;BME280;63554;48.940;12.050;2023-05-10T04:02:19;96694.66;;;11.49;88.32
75008;BME280;63554;48.940;12.050;2023-05-10T04:06:22;96702.25;;;11.35;86.26
75008;BME280;63554;48.940;12.050;2023-05-10T04:10:24;96703.09;;;11.24;88.24
75008;BME280;63554;48.940;12.050;2023-05-10T04:14:27;96688.63;;;11.18;89.69
75008;BME280;63554;48.940;12.050;2023-05-10T04:18:31;96697.78;;;11.29;89.91
75008;BME280;63554;48.940;12.050;2023-05-10T04:22:34;96698.84;;;11.28;89.86
75008;BME280;63554;48.940;12.050;2023-05-10T04:26:36;96698.59;;;11.30;89.33
75008;BME280;63554;48.940;12.050;2023-05-10T04:30:39;96705.19;;;11.34;88.96
75008;BME280;63554;48.940;12.050;2023-05-10T04:34:44;96709.06;;;11.38;88.77
75008;BME280;63554;48.940;12.050;2023-05-10T04:38:46;96707.38;;;11.37;88.93
75008;BME280;63554;48.940;12.050;2023-05-10T04:42:49;96703.69;;;11.14;89.79
75008;BME280;63554;48.940;12.050;2023-05-10T04:46:52;96712.28;;;11.11;90.53
75008;BME280;63554;48.940;12.050;2023-05-10T04:50:56;96718.06;;;11.15;90.22
75008;BME280;63554;48.940;12.050;2023-05-10T04:54:58;96718.66;;;11.05;91.05
75008;BME280;63554;48.940;12.050;2023-05-10T04:59:01;96720.78;;;11.03;91.87
75008;BME280;63554;48.940;12.050;2023-05-10T05:03:04;96719.16;;;11.02;91.48
75008;BME280;63554;48.940;12.050;2023-05-10T05:07:09;96728.69;;;10.93;91.28
75008;BME280;63554;48.940;12.050;2023-05-10T05:11:12;96737.19;;;10.84;91.98
75008;BME280;63554;48.940;12.050;2023-05-10T05:15:15;96740.25;;;10.76;92.58
75008;BME280;63554;48.940;12.050;2023-05-10T05:19:18;96744.81;;;10.76;93.04
75008;BME280;63554;48.940;12.050;2023-05-10T05:23:22;96745.53;;;10.71;92.89
75008;BME280;63554;48.940;12.050;2023-05-10T05:27:26;96762.59;;;10.72;92.91
75008;BME280;63554;48.940;12.050;2023-05-10T05:31:29;96757.78;;;10.74;92.47
75008;BME280;63554;48.940;12.050;2023-05-10T05:35:32;96768.81;;;10.72;92.81
75008;BME280;63554;48.940;12.050;2023-05-10T05:39:37;96774.13;;;10.67;93.07
75008;BME280;63554;48.940;12.050;2023-05-10T05:43:39;96773.41;;;10.60;93.12
75008;BME280;63554;48.940;12.050;2023-05-10T05:47:42;96783.56;;;10.64;93.53
75008;BME280;63554;48.940;12.050;2023-05-10T05:51:45;96779.91;;;10.71;93.50
75008;BME280;63554;48.940;12.050;2023-05-10T05:55:54;96778.25;;;10.69;93.66
75008;BME280;63554;48.940;12.050;2023-05-10T05:59:57;96781.06;;;10.63;93.74
75008;BME280;63554;48.940;12.050;2023-05-10T06:03:59;96789.56;;;10.66;93.92
75008;BME280;63554;48.940;12.050;2023-05-10T06:08:02;96794.47;;;10.69;94.43
75008;BME280;63554;48.940;12.050;2023-05-10T06:12:06;96796.16;;;10.82;95.10
75008;BME280;63554;48.940;12.050;2023-05-10T06:16:10;96801.78;;;10.93;95.06
75008;BME280;63554;48.940;12.050;2023-05-10T06:20:13;96803.69;;;11.04;95.40
75008;BME280;63554;48.940;12.050;2023-05-10T06:24:16;96807.78;;;11.18;95.31
75008;BME280;63554;48.940;12.050;2023-05-10T06:28:20;96806.34;;;11.39;95.24
75008;BME280;63554;48.940;12.050;2023-05-10T06:32:23;96809.81;;;11.63;94.13
75008;BME280;63554;48.940;12.050;2023-05-10T06:36:25;96825.00;;;11.76;92.80
75008;BME280;63554;48.940;12.050;2023-05-10T06:40:29;96820.59;;;11.87;92.66
75008;BME280;63554;48.940;12.050;2023-05-10T06:44:35;96817.06;;;11.98;91.98
75008;BME280;63554;48.940;12.050;2023-05-10T06:48:38;96825.38;;;12.09;92.01
75008;BME280;63554;48.940;12.050;2023-05-10T06:52:40;96829.25;;;12.13;90.94
75008;BME280;63554;48.940;12.050;2023-05-10T06:56:44;96834.53;;;12.19;90.69
75008;BME280;63554;48.940;12.050;2023-05-10T07:00:48;96839.81;;;12.26;90.60
75008;BME280;63554;48.940;12.050;2023-05-10T07:04:51;96841.72;;;12.42;90.23
75008;BME280;63554;48.940;12.050;2023-05-10T07:08:54;96836.56;;;12.58;90.19
75008;BME280;63554;48.940;12.050;2023-05-10T07:12:57;96847.00;;;12.66;89.75
75008;BME280;63554;48.940;12.050;2023-05-10T07:17:01;96857.56;;;12.62;89.18
75008;BME280;63554;48.940;12.050;2023-05-10T07:21:03;96856.56;;;12.52;89.97
75008;BME280;63554;48.940;12.050;2023-05-10T07:25:07;96855.31;;;12.59;89.43
75008;BME280;63554;48.940;12.050;2023-05-10T07:29:09;96857.22;;;12.59;89.40
75008;BME280;63554;48.940;12.050;2023-05-10T07:33:14;96866.03;;;12.66;89.77
75008;BME280;63554;48.940;12.050;2023-05-10T07:37:17;96874.44;;;12.81;89.70
75008;BME280;63554;48.940;12.050;2023-05-10T07:41:20;96866.97;;;12.89;89.16
75008;BME280;63554;48.940;12.050;2023-05-10T07:45:23;96879.06;;;12.98;89.46
75008;BME280;63554;48.940;12.050;2023-05-10T07:49:27;96878.78;;;12.99;88.03
75008;BME280;63554;48.940;12.050;2023-05-10T07:53:30;96875.59;;;13.02;86.25
75008;BME280;63554;48.940;12.050;2023-05-10T07:57:33;96882.50;;;13.10;87.09
75008;BME280;63554;48.940;12.050;2023-05-10T08:01:36;96880.94;;;13.14;86.41
75008;BME280;63554;48.940;12.050;2023-05-10T08:05:40;96888.09;;;13.20;84.88
75008;BME280;63554;48.940;12.050;2023-05-10T08:09:43;96891.19;;;13.41;84.13
75008;BME280;63554;48.940;12.050;2023-05-10T08:13:46;96889.66;;;13.50;83.42
75008;BME280;63554;48.940;12.050;2023-05-10T08:17:48;96897.44;;;13.41;81.32
75008;BME280;63554;48.940;12.050;2023-05-10T08:21:52;96900.94;;;13.59;84.06
75008;BME280;63554;48.940;12.050;2023-05-10T08:25:56;96900.75;;;13.65;83.30
75008;BME280;63554;48.940;12.050;2023-05-10T08:30:00;96903.88;;;13.74;80.48
75008;BME280;63554;48.940;12.050;2023-05-10T08:34:03;96903.78;;;14.08;82.14
75008;BME280;63554;48.940;12.050;2023-05-10T08:38:07;96895.47;;;14.20;79.61
75008;BME280;63554;48.940;12.050;2023-05-10T08:42:09;96908.50;;;14.40;79.35
75008;BME280;63554;48.940;12.050;2023-05-10T08:46:15;96896.81;;;14.17;79.13
75008;BME280;63554;48.940;12.050;2023-05-10T08:50:20;96908.06;;;14.04;80.27
75008;BME280;63554;48.940;12.050;2023-05-10T08:54:24;96905.72;;;14.13;79.79
75008;BME280;63554;48.940;12.050;2023-05-10T08:58:27;96911.50;;;14.66;78.88
75008;BME280;63554;48.940;12.050;2023-05-10T09:02:31;96915.06;;;14.66;73.67
75008;BME280;63554;48.940;12.050;2023-05-10T09:06:37;96912.19;;;14.56;75.85
75008;BME280;63554;48.940;12.050;2023-05-10T09:10:42;96905.19;;;14.60;76.75
75008;BME280;63554;48.940;12.050;2023-05-10T09:14:46;96910.06;;;14.58;76.84
75008;BME280;63554;48.940;12.050;2023-05-10T09:18:49;96920.16;;;14.57;76.25
75008;BME280;63554;48.940;12.050;2023-05-10T09:22:52;96919.91;;;14.59;76.26
75008;BME280;63554;48.940;12.050;2023-05-10T09:26:58;96925.38;;;14.64;77.61
75008;BME280;63554;48.940;12.050;2023-05-10T09:31:01;96925.03;;;14.82;75.19
75008;BME280;63554;48.940;12.050;2023-05-10T09:35:08;96922.00;;;14.79;74.33
75008;BME280;63554;48.940;12.050;2023-05-10T09:39:12;96928.88;;;14.59;74.71
75008;BME280;63554;48.940;12.050;2023-05-10T09:43:16;96925.50;;;14.52;77.23
75008;BME280;63554;48.940;12.050;2023-05-10T09:47:19;96932.84;;;14.52;76.84
75008;BME280;63554;48.940;12.050;2023-05-10T09:51:24;96926.41;;;14.58;77.29
75008;BME280;63554;48.940;12.050;2023-05-10T09:55:38;96921.94;;;14.74;75.95
75008;BME280;63554;48.940;12.050;2023-05-10T09:59:43;96921.06;;;14.95;76.25
75008;BME280;63554;48.940;12.050;2023-05-10T10:03:46;96920.38;;;15.10;75.94
75008;BME280;63554;48.940;12.050;2023-05-10T10:07:49;96909.66;;;15.68;75.21
75008;BME280;63554;48.940;12.050;2023-05-10T10:11:51;96918.88;;;16.05;73.89
75008;BME280;63554;48.940;12.050;2023-05-10T10:15:56;96918.31;;;16.76;71.99
75008;BME280;63554;48.940;12.050;2023-05-10T10:19:59;96914.25;;;16.89;68.42
75008;BME280;63554;48.940;12.050;2023-05-10T10:24:02;96914.28;;;17.19;65.90
75008;BME280;63554;48.940;12.050;2023-05-10T10:28:15;96908.75;;;16.78;64.50
75008;BME280;63554;48.940;12.050;2023-05-10T10:32:25;96906.78;;;16.74;66.25
75008;BME280;63554;48.940;12.050;2023-05-10T10:36:31;96904.44;;;17.39;63.17
75008;BME280;63554;48.940;12.050;2023-05-10T10:40:35;96892.13;;;17.11;60.41
75008;BME280;63554;48.940;12.050;2023-05-10T10:44:38;96892.75;;;16.34;62.42
75008;BME280;63554;48.940;12.050;2023-05-10T10:48:49;96900.09;;;16.18;63.33
75008;BME280;63554;48.940;12.050;2023-05-10T10:52:53;96894.59;;;16.08;65.01
75008;BME280;63554;48.940;12.050;2023-05-10T10:57:11;96893.38;;;15.84;64.61
75008;BME280;63554;48.940;12.050;2023-05-10T11:01:16;96891.09;;;15.70;66.06
75008;BME280;63554;48.940;12.050;2023-05-10T11:05:37;96892.50;;;15.73;65.20
75008;BME280;63554;48.940;12.050;2023-05-10T11:09:40;96888.47;;;15.86;65.29
75008;BME280;63554;48.940;12.050;2023-05-10T11:13:45;96888.22;;;15.87;64.29
75008;BME280;63554;48.940;12.050;2023-05-10T11:17:51;96887.44;;;15.97;64.59
75008;BME280;63554;48.940;12.050;2023-05-10T11:22:12;96898.94;;;16.04;63.73
75008;BME280;63554;48.940;12.050;2023-05-10T11:26:16;96879.25;;;15.97;63.83
75008;BME280;63554;48.940;12.050;2023-05-10T11:30:19;96880.41;;;16.11;64.66
75008;BME280;63554;48.940;12.050;2023-05-10T11:34:26;96890.28;;;16.23;62.85
75008;BME280;63554;48.940;12.050;2023-05-10T11:38:32;96884.03;;;16.27;62.57
75008;BME280;63554;48.940;12.050;2023-05-10T11:42:36;96886.22;;;16.40;62.89
75008;BME280;63554;48.940;12.050;2023-05-10T11:46:39;96880.50;;;16.37;62.64
75008;BME280;63554;48.940;12.050;2023-05-10T11:50:44;96884.53;;;16.24;63.88
75008;BME280;63554;48.940;12.050;2023-05-10T11:54:52;96891.94;;;16.29;63.93
75008;BME280;63554;48.940;12.050;2023-05-10T11:58:56;96885.66;;;16.28;62.69
75008;BME280;63554;48.940;12.050;2023-05-10T12:03:00;96881.91;;;16.55;62.27
75008;BME280;63554;48.940;12.050;2023-05-10T12:07:03;96875.16;;;16.88;61.19
75008;BME280;63554;48.940;12.050;2023-05-10T12:11:11;96877.06;;;16.93;60.84
75008;BME280;63554;48.940;12.050;2023-05-10T12:15:18;96883.66;;;17.02;62.65
75008;BME280;63554;48.940;12.050;2023-05-10T12:19:22;96878.44;;;17.11;61.75
75008;BME280;63554;48.940;12.050;2023-05-10T12:23:26;96889.66;;;17.19;61.09
75008;BME280;63554;48.940;12.050;2023-05-10T12:27:32;96888.84;;;17.19;60.30
75008;BME280;63554;48.940;12.050;2023-05-10T12:31:48;96896.22;;;17.24;58.74
75008;BME280;63554;48.940;12.050;2023-05-10T12:35:53;96892.13;;;17.21;59.37
75008;BME280;63554;48.940;12.050;2023-05-10T12:39:57;96901.16;;;17.22;56.24
75008;BME280;63554;48.940;12.050;2023-05-10T12:44:01;96888.56;;;17.31;56.50
75008;BME280;63554;48.940;12.050;2023-05-10T12:48:04;96898.94;;;17.49;58.01
75008;BME280;63554;48.940;12.050;2023-05-10T12:52:08;96891.84;;;17.28;55.55
75008;BME280;63554;48.940;12.050;2023-05-10T12:56:10;96898.34;;;16.70;58.10
75008;BME280;63554;48.940;12.050;2023-05-10T13:00:15;96905.69;;;16.54;61.33
75008;BME280;63554;48.940;12.050;2023-05-10T13:04:18;96916.25;;;16.30;64.99
75008;BME280;63554;48.940;12.050;2023-05-10T13:08:21;96929.09;;;15.77;68.44
75008;BME280;63554;48.940;12.050;2023-05-10T13:12:24;96927.81;;;15.20;71.09
75008;BME280;63554;48.940;12.050;2023-05-10T13:16:28;96922.50;;;14.76;75.17
75008;BME280;63554;48.940;12.050;2023-05-10T13:20:31;96933.69;;;14.30;77.78
75008;BME280;63554;48.940;12.050;2023-05-10T13:24:34;96932.38;;;14.11;78.79
75008;BME280;63554;48.940;12.050;2023-05-10T13:28:36;96926.34;;;13.87;80.29
75008;BME280;63554;48.940;12.050;2023-05-10T13:32:41;96929.03;;;13.64;82.35
75008;BME280;63554;48.940;12.050;2023-05-10T13:36:44;96928.72;;;13.44;83.45
75008;BME280;63554;48.940;12.050;2023-05-10T13:40:46;96925.94;;;13.39;84.59
75008;BME280;63554;48.940;12.050;2023-05-10T13:44:49;96931.19;;;13.45;85.43
75008;BME280;63554;48.940;12.050;2023-05-10T13:48:54;96924.19;;;13.50;84.95
75008;BME280;63554;48.940;12.050;2023-05-10T13:52:56;96927.00;;;13.55;85.30
75008;BME280;63554;48.940;12.050;2023-05-10T13:56:59;96920.22;;;13.57;85.65
75008;BME280;63554;48.940;12.050;2023-05-10T14:01:03;96927.69;;;13.67;85.46
75008;BME280;63554;48.940;12.050;2023-05-10T14:05:08;96931.44;;;13.61;86.20
75008;BME280;63554;48.940;12.050;2023-05-10T14:09:10;96925.00;;;13.50;86.22
75008;BME280;63554;48.940;12.050;2023-05-10T14:13:13;96920.97;;;13.36;86.72
75008;BME280;63554;48.940;12.050;2023-05-10T14:17:16;96924.91;;;13.28;86.50
75008;BME280;63554;48.940;12.050;2023-05-10T14:21:20;96920.94;;;13.19;87.26
75008;BME280;63554;48.940;12.050;2023-05-10T14:25:23;96929.03;;;13.14;87.73
75008;BME280;63554;48.940;12.050;2023-05-10T14:29:26;96931.75;;;13.14;87.72
75008;BME280;63554;48.940;12.050;2023-05-10T14:33:28;96929.84;;;13.14;88.52
75008;BME280;63554;48.940;12.050;2023-05-10T14:37:32;96930.34;;;13.28;88.64
75008;BME280;63554;48.940;12.050;2023-05-10T14:41:35;96933.00;;;13.40;87.53
75008;BME280;63554;48.940;12.050;2023-05-10T14:45:38;96926.16;;;13.54;87.28
75008;BME280;63554;48.940;12.050;2023-05-10T14:49:41;96938.69;;;13.55;86.82
75008;BME280;63554;48.940;12.050;2023-05-10T14:53:45;96936.44;;;13.52;87.37
75008;BME280;63554;48.940;12.050;2023-05-10T14:57:47;96942.06;;;13.62;86.98
75008;BME280;63554;48.940;12.050;2023-05-10T15:01:51;96942.69;;;13.70;86.78
75008;BME280;63554;48.940;12.050;2023-05-10T15:05:54;96956.81;;;13.67;85.77
75008;BME280;63554;48.940;12.050;2023-05-10T15:10:00;96945.75;;;13.56;87.07
75008;BME280;63554;48.940;12.050;2023-05-10T15:14:03;96953.41;;;13.59;85.82
75008;BME280;63554;48.940;12.050;2023-05-10T15:18:06;96958.63;;;13.61;85.69
75008;BME280;63554;48.940;12.050;2023-05-10T15:22:09;96970.50;;;13.55;85.84
75008;BME280;63554;48.940;12.050;2023-05-10T15:26:13;96971.38;;;13.43;85.69
75008;BME280;63554;48.940;12.050;2023-05-10T15:30:15;96981.97;;;13.28;84.76
75008;BME280;63554;48.940;12.050;2023-05-10T15:34:18;96994.59;;;13.17;84.55
75008;BME280;63554;48.940;12.050;2023-05-10T15:38:21;97002.41;;;13.14;84.62
75008;BME280;63554;48.940;12.050;2023-05-10T15:42:25;96997.69;;;13.09;84.85
75008;BME280;63554;48.940;12.050;2023-05-10T15:46:28;96995.47;;;13.06;85.81
75008;BME280;63554;48.940;12.050;2023-05-10T15:50:31;97008.81;;;13.08;86.16
75008;BME280;63554;48.940;12.050;2023-05-10T15:54:34;96994.06;;;13.03;86.80
75008;BME280;63554;48.940;12.050;2023-05-10T15:58:39;97001.88;;;13.00;87.33
75008;BME280;63554;48.940;12.050;2023-05-10T16:02:42;97005.41;;;13.00;88.06
75008;BME280;63554;48.940;12.050;2023-05-10T16:06:44;96997.31;;;12.89;87.52
75008;BME280;63554;48.940;12.050;2023-05-10T16:10:47;97003.97;;;12.81;88.08
75008;BME280;63554;48.940;12.050;2023-05-10T16:14:51;96996.78;;;12.75;88.36
75008;BME280;63554;48.940;12.050;2023-05-10T16:18:55;97004.13;;;12.74;88.72
75008;BME280;63554;48.940;12.050;2023-05-10T16:23:00;97005.06;;;12.68;89.06
75008;BME280;63554;48.940;12.050;2023-05-10T16:27:04;97014.19;;;12.62;89.66
75008;BME280;63554;48.940;12.050;2023-05-10T16:31:08;97013.13;;;12.63;89.42
75008;BME280;63554;48.940;12.050;2023-05-10T16:35:11;97015.06;;;12.51;88.10
75008;BME280;63554;48.940;12.050;2023-05-10T16:39:14;97011.25;;;12.52;88.26
75008;BME280;63554;48.940;12.050;2023-05-10T16:43:16;97014.91;;;12.57;89.00
75008;BME280;63554;48.940;12.050;2023-05-10T16:47:21;97021.16;;;12.58;88.33
75008;BME280;63554;48.940;12.050;2023-05-10T16:51:26;97018.44;;;12.58;88.85
75008;BME280;63554;48.940;12.050;2023-05-10T16:55:29;97011.84;;;12.54;88.90
75008;BME280;63554;48.940;12.050;2023-05-10T16:59:32;97017.28;;;12.54;88.82
75008;BME280;63554;48.940;12.050;2023-05-10T17:03:36;97026.50;;;12.53;89.07
75008;BME280;63554;48.940;12.050;2023-05-10T17:07:39;97021.66;;;12.55;89.91
75008;BME280;63554;48.940;12.050;2023-05-10T17:11:41;97023.53;;;12.54;90.18
75008;BME280;63554;48.940;12.050;2023-05-10T17:15:44;97027.78;;;12.50;90.47
75008;BME280;63554;48.940;12.050;2023-05-10T17:19:49;97035.09;;;12.50;90.63
75008;BME280;63554;48.940;12.050;2023-05-10T17:23:52;97033.81;;;12.40;90.79
75008;BME280;63554;48.940;12.050;2023-05-10T17:27:55;97037.25;;;12.36;90.51
75008;BME280;63554;48.940;12.050;2023-05-10T17:31:57;97035.59;;;12.35;91.87
75008;BME280;63554;48.940;12.050;2023-05-10T17:36:01;97047.06;;;12.25;90.94
75008;BME280;63554;48.940;12.050;2023-05-10T17:40:05;97051.44;;;12.14;92.13
75008;BME280;63554;48.940;12.050;2023-05-10T17:44:10;97049.31;;;12.04;92.70
75008;BME280;63554;48.940;12.050;2023-05-10T17:48:13;97048.88;;;11.96;93.82
75008;BME280;63554;48.940;12.050;2023-05-10T17:52:17;97049.91;;;11.95;94.63
75008;BME280;63554;48.940;12.050;2023-05-10T17:56:20;97046.97;;;11.96;94.85
75008;BME280;63554;48.940;12.050;2023-05-10T18:00:23;97056.06;;;11.90;95.33
75008;BME280;63554;48.940;12.050;2023-05-10T18:04:26;97055.19;;;11.78;94.38
75008;BME280;63554;48.940;12.050;2023-05-10T18:08:30;97047.88;;;11.78;94.90
75008;BME280;63554;48.940;12.050;2023-05-10T18:12:33;97057.06;;;11.65;95.24
75008;BME280;63554;48.940;12.050;2023-05-10T18:16:36;97066.72;;;11.61;95.54
75008;BME280;63554;48.940;12.050;2023-05-10T18:20:39;97059.03;;;11.58;96.21
75008;BME280;63554;48.940;12.050;2023-05-10T18:24:43;97068.25;;;11.57;95.83
75008;BME280;63554;48.940;12.050;2023-05-10T18:28:47;97068.09;;;11.52;95.36
75008;BME280;63554;48.940;12.050;2023-05-10T18:32:50;97077.75;;;11.48;95.17
75008;BME280;63554;48.940;12.050;2023-05-10T18:36:52;97083.06;;;11.43;94.85
75008;BME280;63554;48.940;12.050;2023-05-10T18:40:56;97085.28;;;11.34;94.67
75008;BME280;63554;48.940;12.050;2023-05-10T18:45:00;97087.63;;;11.31;95.18
75008;BME280;63554;48.940;12.050;2023-05-10T18:49:03;97091.72;;;11.21;94.83
75008;BME280;63554;48.940;12.050;2023-05-10T18:53:06;97095.31;;;11.15;95.13
75008;BME280;63554;48.940;12.050;2023-05-10T18:57:11;97104.03;;;11.05;95.48
75008;BME280;63554;48.940;12.050;2023-05-10T19:01:14;97102.59;;;11.03;95.86
75008;BME280;63554;48.940;12.050;2023-05-10T19:05:18;97114.56;;;10.95;95.78
75008;BME280;63554;48.940;12.050;2023-05-10T19:09:21;97116.44;;;10.95;96.38
75008;BME280;63554;48.940;12.050;2023-05-10T19:13:25;97122.31;;;10.92;96.78
75008;BME280;63554;48.940;12.050;2023-05-10T19:17:29;97121.09;;;10.87;97.22
75008;BME280;63554;48.940;12.050;2023-05-10T19:21:32;97115.34;;;10.84;97.52
75008;BME280;63554;48.940;12.050;2023-05-10T19:25:35;97125.31;;;10.83;97.92
75008;BME280;63554;48.940;12.050;2023-05-10T19:29:40;97137.22;;;10.82;98.10
75008;BME280;63554;48.940;12.050;2023-05-10T19:33:43;97126.22;;;10.77;97.83
75008;BME280;63554;48.940;12.050;2023-05-10T19:37:45;97131.66;;;10.77;98.01
75008;BME280;63554;48.940;12.050;2023-05-10T19:41:49;97137.06;;;10.77;98.39
75008;BME280;63554;48.940;12.050;2023-05-10T19:45:53;97139.59;;;10.72;98.39
75008;BME280;63554;48.940;12.050;2023-05-10T19:49:56;97122.78;;;10.70;98.54
75008;BME280;63554;48.940;12.050;2023-05-10T19:53:59;97134.88;;;10.67;98.60
75008;BME280;63554;48.940;12.050;2023-05-10T19:58:02;97131.19;;;10.62;98.67
75008;BME280;63554;48.940;12.050;2023-05-10T20:02:07;97125.19;;;10.60;98.79
75008;BME280;63554;48.940;12.050;2023-05-10T20:06:10;97132.25;;;10.61;98.98
75008;BME280;63554;48.940;12.050;2023-05-10T20:10:12;97134.13;;;10.60;99.00
75008;BME280;63554;48.940;12.050;2023-05-10T20:14:16;97126.47;;;10.57;99.14
75008;BME280;63554;48.940;12.050;2023-05-10T20:18:21;97131.28;;;10.55;99.02
75008;BME280;63554;48.940;12.050;2023-05-10T20:22:24;97139.19;;;10.57;99.29
75008;BME280;63554;48.940;12.050;2023-05-10T20:26:27;97138.34;;;10.56;99.27
75008;BME280;63554;48.940;12.050;2023-05-10T20:30:30;97138.59;;;10.55;99.22
75008;BME280;63554;48.940;12.050;2023-05-10T20:34:34;97130.09;;;10.51;99.20
75008;BME280;63554;48.940;12.050;2023-05-10T20:38:37;97131.13;;;10.50;99.31
75008;BME280;63554;48.940;12.050;2023-05-10T20:42:40;97136.53;;;10.50;99.31
75008;BME280;63554;48.940;12.050;2023-05-10T20:46:43;97132.41;;;10.47;99.54
75008;BME280;63554;48.940;12.050;2023-05-10T20:50:47;97131.34;;;10.48;99.92
75008;BME280;63554;48.940;12.050;2023-05-10T20:54:50;97130.72;;;10.46;99.76
75008;BME280;63554;48.940;12.050;2023-05-10T20:58:53;97127.22;;;10.46;100.00
75008;BME280;63554;48.940;12.050;2023-05-10T21:02:56;97130.38;;;10.43;99.86
75008;BME280;63554;48.940;12.050;2023-05-10T21:07:00;97140.94;;;10.44;100.00
75008;BME280;63554;48.940;12.050;2023-05-10T21:11:02;97129.53;;;10.42;100.00
75008;BME280;63554;48.940;12.050;2023-05-10T21:15:07;97127.28;;;10.39;100.00
75008;BME280;63554;48.940;12.050;2023-05-10T21:19:10;97129.63;;;10.36;100.00